Lake Windsor, Wisconsin
Current Conditions -  °F | °C
As of 4:15 AM on Thursday 27 Nov 2014 (Local Time) from KMSN Reporting Station
Overcast Overcast  
Wind Chill: 12°   Ceiling: 1900
Heat Index: 23°   Visibility: 10mi
Dew Point: 17°   Wind: 10mph
Humidity: 78%   Direction: 340°NNW
Pressure: 30.27"   Gusts: NA
Location:  43.2117°N, 89.3436°W
Report Text: KMSN 271015Z AUTO 34009KT 10SM BKN019 BKN080 OVC100 M05/M08 A3027 RMK AO2 T10501083
Loading
Personal Weather Stations






























Interactive Weather Map New forecast layout! Learn more

10-Day Weather Forecast

Advertisements
Track Severe Weather on mobile